sensor_id;sensor_type;location;lat;lon;timestamp;pressure;altitude;pressure_sealevel;temperature;humidity
74613;BME280;63119;51.788;8.824;2022-10-16T00:01:32;99623.59;;;14.37;83.75
74613;BME280;63119;51.788;8.824;2022-10-16T00:03:59;99630.47;;;14.40;83.04
74613;BME280;63119;51.788;8.824;2022-10-16T00:06:26;99633.81;;;14.42;83.28
74613;BME280;63119;51.788;8.824;2022-10-16T00:08:52;99634.94;;;14.39;83.13
74613;BME280;63119;51.788;8.824;2022-10-16T00:11:21;99634.25;;;14.37;83.13
74613;BME280;63119;51.788;8.824;2022-10-16T00:13:48;99633.66;;;14.34;83.27
74613;BME280;63119;51.788;8.824;2022-10-16T00:16:15;99635.59;;;14.32;83.53
74613;BME280;63119;51.788;8.824;2022-10-16T00:18:41;99627.88;;;14.29;83.75
74613;BME280;63119;51.788;8.824;2022-10-16T00:21:12;99633.50;;;14.26;83.76
74613;BME280;63119;51.788;8.824;2022-10-16T00:23:38;99640.94;;;14.32;83.93
74613;BME280;63119;51.788;8.824;2022-10-16T00:26:06;99639.91;;;14.23;83.91
74613;BME280;63119;51.788;8.824;2022-10-16T00:28:32;99632.06;;;14.21;83.98
74613;BME280;63119;51.788;8.824;2022-10-16T00:30:57;99635.41;;;14.23;84.10
74613;BME280;63119;51.788;8.824;2022-10-16T00:33:23;99641.56;;;14.14;84.55
74613;BME280;63119;51.788;8.824;2022-10-16T00:35:49;99641.28;;;14.17;84.25
74613;BME280;63119;51.788;8.824;2022-10-16T00:38:15;99625.34;;;14.27;84.43
74613;BME280;63119;51.788;8.824;2022-10-16T00:40:41;99624.47;;;14.17;84.53
74613;BME280;63119;51.788;8.824;2022-10-16T00:43:13;99624.59;;;14.06;85.28
74613;BME280;63119;51.788;8.824;2022-10-16T00:45:39;99621.94;;;14.06;85.12
74613;BME280;63119;51.788;8.824;2022-10-16T00:48:10;99629.31;;;14.02;85.71
74613;BME280;63119;51.788;8.824;2022-10-16T00:50:38;99631.41;;;13.99;85.45
74613;BME280;63119;51.788;8.824;2022-10-16T00:53:04;99622.84;;;13.95;85.11
74613;BME280;63119;51.788;8.824;2022-10-16T00:55:30;99631.69;;;13.96;85.57
74613;BME280;63119;51.788;8.824;2022-10-16T00:57:56;99629.69;;;13.88;85.67
74613;BME280;63119;51.788;8.824;2022-10-16T01:00:25;99633.75;;;13.83;85.80
74613;BME280;63119;51.788;8.824;2022-10-16T01:02:55;99630.78;;;13.76;85.62
74613;BME280;63119;51.788;8.824;2022-10-16T01:05:23;99634.38;;;13.75;85.97
74613;BME280;63119;51.788;8.824;2022-10-16T01:08:08;99627.38;;;13.74;85.60
74613;BME280;63119;51.788;8.824;2022-10-16T01:10:40;99637.25;;;13.62;86.38
74613;BME280;63119;51.788;8.824;2022-10-16T01:13:12;99641.88;;;13.60;86.06
74613;BME280;63119;51.788;8.824;2022-10-16T01:15:55;99645.13;;;13.64;85.61
74613;BME280;63119;51.788;8.824;2022-10-16T01:18:37;99643.31;;;13.64;85.59
74613;BME280;63119;51.788;8.824;2022-10-16T01:21:07;99652.41;;;13.72;85.60
74613;BME280;63119;51.788;8.824;2022-10-16T01:26:13;99652.75;;;13.78;85.42
74613;BME280;63119;51.788;8.824;2022-10-16T01:28:52;99652.75;;;13.78;85.73
74613;BME280;63119;51.788;8.824;2022-10-16T01:31:23;99650.41;;;13.85;84.89
74613;BME280;63119;51.788;8.824;2022-10-16T01:34:15;99649.44;;;13.86;85.11
74613;BME280;63119;51.788;8.824;2022-10-16T01:36:53;99654.28;;;13.81;85.31
74613;BME280;63119;51.788;8.824;2022-10-16T01:39:22;99663.56;;;13.86;85.16
74613;BME280;63119;51.788;8.824;2022-10-16T01:41:54;99652.38;;;13.92;84.84
74613;BME280;63119;51.788;8.824;2022-10-16T01:44:29;99661.16;;;13.83;85.37
74613;BME280;63119;51.788;8.824;2022-10-16T01:46:56;99666.53;;;13.93;85.19
74613;BME280;63119;51.788;8.824;2022-10-16T01:49:24;99669.06;;;13.94;84.76
74613;BME280;63119;51.788;8.824;2022-10-16T01:51:55;99668.16;;;13.84;85.02
74613;BME280;63119;51.788;8.824;2022-10-16T01:54:23;99664.22;;;13.79;85.07
74613;BME280;63119;51.788;8.824;2022-10-16T01:56:51;99670.50;;;13.78;85.33
74613;BME280;63119;51.788;8.824;2022-10-16T01:59:19;99674.69;;;13.71;85.37
74613;BME280;63119;51.788;8.824;2022-10-16T02:01:49;99670.72;;;13.65;85.43
74613;BME280;63119;51.788;8.824;2022-10-16T02:04:24;99672.94;;;13.60;85.56
74613;BME280;63119;51.788;8.824;2022-10-16T02:06:52;99673.09;;;13.58;85.63
74613;BME280;63119;51.788;8.824;2022-10-16T02:09:18;99675.84;;;13.57;85.72
74613;BME280;63119;51.788;8.824;2022-10-16T02:11:44;99678.78;;;13.54;85.64
74613;BME280;63119;51.788;8.824;2022-10-16T02:14:09;99679.47;;;13.56;85.61
74613;BME280;63119;51.788;8.824;2022-10-16T02:16:37;99679.03;;;13.51;85.68
74613;BME280;63119;51.788;8.824;2022-10-16T02:19:04;99676.38;;;13.51;86.02
74613;BME280;63119;51.788;8.824;2022-10-16T02:22:19;99679.63;;;13.54;85.80
74613;BME280;63119;51.788;8.824;2022-10-16T02:24:54;99680.22;;;13.58;86.04
74613;BME280;63119;51.788;8.824;2022-10-16T02:30:16;99674.88;;;13.58;85.67
74613;BME280;63119;51.788;8.824;2022-10-16T02:32:46;99675.47;;;13.61;85.69
74613;BME280;63119;51.788;8.824;2022-10-16T02:35:13;99676.28;;;13.62;85.62
74613;BME280;63119;51.788;8.824;2022-10-16T02:37:40;99674.63;;;13.61;85.63
74613;BME280;63119;51.788;8.824;2022-10-16T02:40:06;99664.31;;;13.67;85.02
74613;BME280;63119;51.788;8.824;2022-10-16T02:42:34;99658.41;;;13.64;85.32
74613;BME280;63119;51.788;8.824;2022-10-16T02:45:00;99660.97;;;13.75;84.61
74613;BME280;63119;51.788;8.824;2022-10-16T02:47:25;99675.38;;;13.73;84.35
74613;BME280;63119;51.788;8.824;2022-10-16T02:49:50;99674.28;;;13.75;84.55
74613;BME280;63119;51.788;8.824;2022-10-16T02:52:15;99675.97;;;13.76;84.40
74613;BME280;63119;51.788;8.824;2022-10-16T02:54:41;99682.00;;;13.78;84.31
74613;BME280;63119;51.788;8.824;2022-10-16T02:57:06;99671.88;;;13.72;84.86
74613;BME280;63119;51.788;8.824;2022-10-16T02:59:31;99676.41;;;13.81;84.52
74613;BME280;63119;51.788;8.824;2022-10-16T03:01:57;99664.34;;;13.77;84.59
74613;BME280;63119;51.788;8.824;2022-10-16T03:04:22;99678.63;;;13.76;84.71
74613;BME280;63119;51.788;8.824;2022-10-16T03:06:47;99671.09;;;13.81;84.24
74613;BME280;63119;51.788;8.824;2022-10-16T03:09:12;99674.28;;;13.75;84.33
74613;BME280;63119;51.788;8.824;2022-10-16T03:11:38;99670.50;;;13.78;84.35
74613;BME280;63119;51.788;8.824;2022-10-16T03:14:03;99672.91;;;13.81;84.20
74613;BME280;63119;51.788;8.824;2022-10-16T03:16:28;99682.00;;;13.78;84.22
74613;BME280;63119;51.788;8.824;2022-10-16T03:18:53;99674.72;;;13.80;83.65
74613;BME280;63119;51.788;8.824;2022-10-16T03:21:19;99679.06;;;13.81;83.67
74613;BME280;63119;51.788;8.824;2022-10-16T03:23:44;99680.28;;;13.77;83.92
74613;BME280;63119;51.788;8.824;2022-10-16T03:26:09;99679.16;;;13.70;84.22
74613;BME280;63119;51.788;8.824;2022-10-16T03:28:34;99678.38;;;13.79;83.86
74613;BME280;63119;51.788;8.824;2022-10-16T03:31:00;99677.63;;;13.77;83.91
74613;BME280;63119;51.788;8.824;2022-10-16T03:33:25;99671.63;;;13.75;83.80
74613;BME280;63119;51.788;8.824;2022-10-16T03:35:52;99673.06;;;13.79;83.74
74613;BME280;63119;51.788;8.824;2022-10-16T03:38:18;99678.63;;;13.76;83.75
74613;BME280;63119;51.788;8.824;2022-10-16T03:40:43;99691.47;;;13.71;83.75
74613;BME280;63119;51.788;8.824;2022-10-16T03:43:08;99690.38;;;13.74;83.40
74613;BME280;63119;51.788;8.824;2022-10-16T03:45:33;99688.28;;;13.77;83.28
74613;BME280;63119;51.788;8.824;2022-10-16T03:47:59;99679.59;;;13.75;83.69
74613;BME280;63119;51.788;8.824;2022-10-16T03:50:24;99688.53;;;13.74;83.87
74613;BME280;63119;51.788;8.824;2022-10-16T03:52:49;99690.13;;;13.77;83.35
74613;BME280;63119;51.788;8.824;2022-10-16T03:55:15;99694.84;;;13.73;83.47
74613;BME280;63119;51.788;8.824;2022-10-16T03:57:40;99687.56;;;13.75;83.50
74613;BME280;63119;51.788;8.824;2022-10-16T04:00:06;99689.91;;;13.68;84.30
74613;BME280;63119;51.788;8.824;2022-10-16T04:02:31;99698.47;;;13.72;83.75
74613;BME280;63119;51.788;8.824;2022-10-16T04:04:56;99702.31;;;13.79;83.47
74613;BME280;63119;51.788;8.824;2022-10-16T04:07:22;99692.78;;;13.77;83.87
74613;BME280;63119;51.788;8.824;2022-10-16T04:09:47;99681.16;;;13.78;83.94
74613;BME280;63119;51.788;8.824;2022-10-16T04:12:12;99690.94;;;13.77;83.62
74613;BME280;63119;51.788;8.824;2022-10-16T04:14:37;99688.09;;;13.69;84.10
74613;BME280;63119;51.788;8.824;2022-10-16T04:17:03;99685.31;;;13.71;83.93
74613;BME280;63119;51.788;8.824;2022-10-16T04:19:28;99688.69;;;13.73;84.08
74613;BME280;63119;51.788;8.824;2022-10-16T04:21:53;99682.25;;;13.75;83.98
74613;BME280;63119;51.788;8.824;2022-10-16T04:24:18;99675.13;;;13.76;83.64
74613;BME280;63119;51.788;8.824;2022-10-16T04:26:44;99697.03;;;13.68;84.55
74613;BME280;63119;51.788;8.824;2022-10-16T04:29:09;99692.31;;;13.72;84.07
74613;BME280;63119;51.788;8.824;2022-10-16T04:31:34;99693.16;;;13.72;84.12
74613;BME280;63119;51.788;8.824;2022-10-16T04:34:00;99699.66;;;13.79;83.65
74613;BME280;63119;51.788;8.824;2022-10-16T04:36:25;99699.66;;;13.79;83.10
74613;BME280;63119;51.788;8.824;2022-10-16T04:38:50;99712.69;;;13.82;83.13
74613;BME280;63119;51.788;8.824;2022-10-16T04:41:16;99718.44;;;13.87;82.98
74613;BME280;63119;51.788;8.824;2022-10-16T04:43:41;99722.06;;;13.86;82.81
74613;BME280;63119;51.788;8.824;2022-10-16T04:46:06;99716.03;;;13.84;83.21
74613;BME280;63119;51.788;8.824;2022-10-16T04:48:32;99707.09;;;13.85;83.11
74613;BME280;63119;51.788;8.824;2022-10-16T04:50:57;99716.47;;;13.89;82.51
74613;BME280;63119;51.788;8.824;2022-10-16T04:53:22;99718.44;;;13.87;83.16
74613;BME280;63119;51.788;8.824;2022-10-16T04:55:49;99720.25;;;13.87;83.10
74613;BME280;63119;51.788;8.824;2022-10-16T04:58:14;99717.59;;;13.87;82.55
74613;BME280;63119;51.788;8.824;2022-10-16T05:00:40;99715.06;;;13.85;82.96
74613;BME280;63119;51.788;8.824;2022-10-16T05:03:05;99730.63;;;13.90;82.54
74613;BME280;63119;51.788;8.824;2022-10-16T05:05:33;99735.25;;;13.88;82.41
74613;BME280;63119;51.788;8.824;2022-10-16T05:07:59;99736.69;;;13.92;82.46
74613;BME280;63119;51.788;8.824;2022-10-16T05:10:24;99729.50;;;13.92;82.63
74613;BME280;63119;51.788;8.824;2022-10-16T05:12:49;99724.47;;;13.89;82.66
74613;BME280;63119;51.788;8.824;2022-10-16T05:15:16;99729.50;;;13.92;82.58
74613;BME280;63119;51.788;8.824;2022-10-16T05:17:42;99741.25;;;13.90;82.48
74613;BME280;63119;51.788;8.824;2022-10-16T05:20:07;99731.22;;;13.93;82.44
74613;BME280;63119;51.788;8.824;2022-10-16T05:22:33;99723.75;;;13.87;82.55
74613;BME280;63119;51.788;8.824;2022-10-16T05:24:58;99735.84;;;13.91;82.25
74613;BME280;63119;51.788;8.824;2022-10-16T05:27:23;99746.47;;;13.91;82.16
74613;BME280;63119;51.788;8.824;2022-10-16T05:29:49;99749.41;;;13.88;82.14
74613;BME280;63119;51.788;8.824;2022-10-16T05:32:15;99764.63;;;13.86;82.53
74613;BME280;63119;51.788;8.824;2022-10-16T05:34:40;99766.47;;;13.86;82.18
74613;BME280;63119;51.788;8.824;2022-10-16T05:37:06;99752.16;;;13.87;82.10
74613;BME280;63119;51.788;8.824;2022-10-16T05:39:31;99755.69;;;13.87;82.24
74613;BME280;63119;51.788;8.824;2022-10-16T05:41:57;99755.69;;;13.87;82.40
74613;BME280;63119;51.788;8.824;2022-10-16T05:44:22;99749.41;;;13.88;82.36
74613;BME280;63119;51.788;8.824;2022-10-16T05:46:47;99742.38;;;13.87;82.03
74613;BME280;63119;51.788;8.824;2022-10-16T05:49:13;99751.47;;;13.85;82.58
74613;BME280;63119;51.788;8.824;2022-10-16T05:51:38;99759.56;;;13.83;82.64
74613;BME280;63119;51.788;8.824;2022-10-16T05:54:03;99772.41;;;13.78;82.55
74613;BME280;63119;51.788;8.824;2022-10-16T05:56:29;99773.13;;;13.80;82.17
74613;BME280;63119;51.788;8.824;2022-10-16T05:58:54;99780.03;;;13.83;82.21
74613;BME280;63119;51.788;8.824;2022-10-16T06:01:19;99780.84;;;13.83;82.38
74613;BME280;63119;51.788;8.824;2022-10-16T06:03:46;99785.63;;;13.89;81.82
74613;BME280;63119;51.788;8.824;2022-10-16T06:06:19;99794.94;;;13.95;81.76
74613;BME280;63119;51.788;8.824;2022-10-16T06:08:46;99788.19;;;13.91;82.11
74613;BME280;63119;51.788;8.824;2022-10-16T06:11:15;99808.09;;;13.96;81.07
74613;BME280;63119;51.788;8.824;2022-10-16T06:13:41;99810.75;;;13.96;80.91
74613;BME280;63119;51.788;8.824;2022-10-16T06:16:09;99810.94;;;14.04;80.99
74613;BME280;63119;51.788;8.824;2022-10-16T06:18:35;99806.59;;;14.03;80.63
74613;BME280;63119;51.788;8.824;2022-10-16T06:21:07;99819.91;;;14.03;80.64
74613;BME280;63119;51.788;8.824;2022-10-16T06:23:33;99815.28;;;14.05;80.53
74613;BME280;63119;51.788;8.824;2022-10-16T06:26:08;99824.81;;;14.08;80.66
74613;BME280;63119;51.788;8.824;2022-10-16T06:28:34;99829.44;;;14.06;81.08
74613;BME280;63119;51.788;8.824;2022-10-16T06:31:00;99819.91;;;14.03;80.95
74613;BME280;63119;51.788;8.824;2022-10-16T06:33:26;99824.81;;;14.08;80.45
74613;BME280;63119;51.788;8.824;2022-10-16T06:35:51;99828.06;;;14.11;80.45
74613;BME280;63119;51.788;8.824;2022-10-16T06:38:17;99829.31;;;14.07;80.79
74613;BME280;63119;51.788;8.824;2022-10-16T06:40:42;99836.66;;;14.15;80.09
74613;BME280;63119;51.788;8.824;2022-10-16T06:43:07;99842.69;;;14.17;80.26
74613;BME280;63119;51.788;8.824;2022-10-16T06:45:32;99847.03;;;14.18;80.01
74613;BME280;63119;51.788;8.824;2022-10-16T06:47:58;99842.56;;;14.18;80.52
74613;BME280;63119;51.788;8.824;2022-10-16T06:50:23;99846.50;;;14.24;80.40
74613;BME280;63119;51.788;8.824;2022-10-16T06:52:49;99848.31;;;14.35;79.54
74613;BME280;63119;51.788;8.824;2022-10-16T06:55:14;99839.53;;;14.44;79.33
74613;BME280;63119;51.788;8.824;2022-10-16T06:57:40;99848.22;;;14.46;80.13
74613;BME280;63119;51.788;8.824;2022-10-16T07:00:06;99863.06;;;14.48;79.18
74613;BME280;63119;51.788;8.824;2022-10-16T07:02:31;99866.72;;;14.47;79.37
74613;BME280;63119;51.788;8.824;2022-10-16T07:04:57;99877.25;;;14.49;79.05
74613;BME280;63119;51.788;8.824;2022-10-16T07:07:22;99870.09;;;14.49;79.18
74613;BME280;63119;51.788;8.824;2022-10-16T07:09:49;99879.50;;;14.53;78.91
74613;BME280;63119;51.788;8.824;2022-10-16T07:12:15;99886.84;;;14.61;78.53
74613;BME280;63119;51.788;8.824;2022-10-16T07:14:40;99887.81;;;14.60;79.30
74613;BME280;63119;51.788;8.824;2022-10-16T07:17:05;99882.38;;;14.61;78.76
74613;BME280;63119;51.788;8.824;2022-10-16T07:19:31;99893.72;;;14.63;78.72
74613;BME280;63119;51.788;8.824;2022-10-16T07:21:56;99895.47;;;14.74;79.43
74613;BME280;63119;51.788;8.824;2022-10-16T07:24:22;99904.66;;;14.91;78.47
74613;BME280;63119;51.788;8.824;2022-10-16T07:26:47;99907.78;;;15.05;77.58
74613;BME280;63119;51.788;8.824;2022-10-16T07:29:20;99902.28;;;14.97;77.31
74613;BME280;63119;51.788;8.824;2022-10-16T07:31:47;99906.81;;;15.06;78.09
74613;BME280;63119;51.788;8.824;2022-10-16T07:34:15;99920.84;;;15.08;77.01
74613;BME280;63119;51.788;8.824;2022-10-16T07:36:41;99918.72;;;15.02;77.30
74613;BME280;63119;51.788;8.824;2022-10-16T07:39:06;99915.72;;;15.56;76.19
74613;BME280;63119;51.788;8.824;2022-10-16T07:41:32;99926.13;;;17.11;72.37
74613;BME280;63119;51.788;8.824;2022-10-16T07:43:58;99931.41;;;17.48;69.44
74613;BME280;63119;51.788;8.824;2022-10-16T07:46:26;99933.97;;;17.49;69.50
74613;BME280;63119;51.788;8.824;2022-10-16T07:48:52;99942.56;;;17.16;69.53
74613;BME280;63119;51.788;8.824;2022-10-16T07:51:19;99944.69;;;18.65;65.77
74613;BME280;63119;51.788;8.824;2022-10-16T07:53:46;99944.81;;;20.07;61.20
74613;BME280;63119;51.788;8.824;2022-10-16T07:56:12;99948.41;;;20.56;58.29
74613;BME280;63119;51.788;8.824;2022-10-16T07:58:37;99958.66;;;21.09;57.01
74613;BME280;63119;51.788;8.824;2022-10-16T08:01:07;99947.84;;;19.96;59.50
74613;BME280;63119;51.788;8.824;2022-10-16T08:03:33;99960.34;;;20.61;57.34
74613;BME280;63119;51.788;8.824;2022-10-16T08:06:00;99964.66;;;20.22;58.71
74613;BME280;63119;51.788;8.824;2022-10-16T08:08:26;99961.22;;;20.70;57.95
74613;BME280;63119;51.788;8.824;2022-10-16T08:10:51;99962.34;;;20.43;58.16
74613;BME280;63119;51.788;8.824;2022-10-16T08:13:17;99965.56;;;20.47;58.09
74613;BME280;63119;51.788;8.824;2022-10-16T08:15:43;99958.50;;;20.46;58.74
74613;BME280;63119;51.788;8.824;2022-10-16T08:18:10;99961.00;;;20.31;59.43
74613;BME280;63119;51.788;8.824;2022-10-16T08:20:35;99951.28;;;20.38;58.44
74613;BME280;63119;51.788;8.824;2022-10-16T08:23:00;99950.44;;;20.38;58.43
74613;BME280;63119;51.788;8.824;2022-10-16T08:25:27;99959.28;;;20.22;60.13
74613;BME280;63119;51.788;8.824;2022-10-16T08:27:52;99958.13;;;20.08;60.89
74613;BME280;63119;51.788;8.824;2022-10-16T08:30:18;99961.19;;;20.30;59.56
74613;BME280;63119;51.788;8.824;2022-10-16T08:32:44;99969.50;;;20.02;59.12
74613;BME280;63119;51.788;8.824;2022-10-16T08:35:10;99970.66;;;19.92;59.81
74613;BME280;63119;51.788;8.824;2022-10-16T08:37:36;99974.38;;;19.99;60.37
74613;BME280;63119;51.788;8.824;2022-10-16T08:40:03;99982.81;;;20.20;60.05
74613;BME280;63119;51.788;8.824;2022-10-16T08:42:40;99986.56;;;20.35;58.76
74613;BME280;63119;51.788;8.824;2022-10-16T08:48:19;99994.03;;;20.15;59.50
74613;BME280;63119;51.788;8.824;2022-10-16T08:50:47;99997.41;;;20.17;59.36
74613;BME280;63119;51.788;8.824;2022-10-16T08:53:21;99995.63;;;20.34;58.67
74613;BME280;63119;51.788;8.824;2022-10-16T08:55:50;100009.09;;;20.42;58.89
74613;BME280;63119;51.788;8.824;2022-10-16T08:58:18;100003.97;;;19.65;60.18
74613;BME280;63119;51.788;8.824;2022-10-16T09:00:47;100003.41;;;20.03;59.71
74613;BME280;63119;51.788;8.824;2022-10-16T09:14:43;100040.13;;;19.27;61.76
74613;BME280;63119;51.788;8.824;2022-10-16T09:19:51;100045.53;;;18.66;62.76
74613;BME280;63119;51.788;8.824;2022-10-16T09:22:27;100050.38;;;18.63;62.95
74613;BME280;63119;51.788;8.824;2022-10-16T09:24:56;100041.41;;;18.54;63.55
74613;BME280;63119;51.788;8.824;2022-10-16T09:27:26;100050.38;;;18.63;64.02
74613;BME280;63119;51.788;8.824;2022-10-16T09:29:51;100058.47;;;18.71;64.07
74613;BME280;63119;51.788;8.824;2022-10-16T09:32:21;100054.72;;;18.64;63.56
74613;BME280;63119;51.788;8.824;2022-10-16T09:34:52;100051.47;;;18.42;63.78
74613;BME280;63119;51.788;8.824;2022-10-16T09:37:21;100054.72;;;18.64;63.78
74613;BME280;63119;51.788;8.824;2022-10-16T09:39:52;100053.97;;;18.53;63.62
74613;BME280;63119;51.788;8.824;2022-10-16T09:42:27;100056.34;;;18.57;63.89
74613;BME280;63119;51.788;8.824;2022-10-16T09:44:55;100064.19;;;18.76;62.72
74613;BME280;63119;51.788;8.824;2022-10-16T09:47:24;100071.50;;;18.83;62.38
74613;BME280;63119;51.788;8.824;2022-10-16T09:50:05;100060.31;;;19.14;60.50
74613;BME280;63119;51.788;8.824;2022-10-16T09:52:32;100061.53;;;19.19;60.71
74613;BME280;63119;51.788;8.824;2022-10-16T09:55:00;100061.09;;;19.06;60.21
74613;BME280;63119;51.788;8.824;2022-10-16T09:57:25;100074.63;;;18.79;60.52
74613;BME280;63119;51.788;8.824;2022-10-16T09:59:53;100067.53;;;19.13;58.69
74613;BME280;63119;51.788;8.824;2022-10-16T10:02:29;100074.63;;;19.22;57.47
74613;BME280;63119;51.788;8.824;2022-10-16T10:04:54;100072.31;;;19.27;57.44
74613;BME280;63119;51.788;8.824;2022-10-16T10:07:25;100072.00;;;19.30;57.94
74613;BME280;63119;51.788;8.824;2022-10-16T10:09:52;100078.94;;;19.15;57.91
74613;BME280;63119;51.788;8.824;2022-10-16T10:12:23;100086.34;;;19.21;57.96
74613;BME280;63119;51.788;8.824;2022-10-16T10:14:51;100086.75;;;19.26;57.59
74613;BME280;63119;51.788;8.824;2022-10-16T10:17:23;100087.97;;;19.32;56.83
74613;BME280;63119;51.788;8.824;2022-10-16T10:19:54;100084.53;;;19.39;55.64
74613;BME280;63119;51.788;8.824;2022-10-16T10:22:28;100102.44;;;19.39;56.09
74613;BME280;63119;51.788;8.824;2022-10-16T10:24:55;100094.59;;;19.71;56.31
74613;BME280;63119;51.788;8.824;2022-10-16T10:33:03;100098.34;;;20.12;53.64
74613;BME280;63119;51.788;8.824;2022-10-16T10:46:39;100100.53;;;20.16;52.25
74613;BME280;63119;51.788;8.824;2022-10-16T10:49:16;100107.00;;;20.40;51.34
74613;BME280;63119;51.788;8.824;2022-10-16T10:57:38;100097.41;;;20.37;51.27
74613;BME280;63119;51.788;8.824;2022-10-16T11:00:28;100099.78;;;20.40;50.91
74613;BME280;63119;51.788;8.824;2022-10-16T11:03:07;100092.91;;;20.46;51.58
74613;BME280;63119;51.788;8.824;2022-10-16T11:08:48;100094.44;;;20.48;49.95
74613;BME280;63119;51.788;8.824;2022-10-16T11:11:22;100097.56;;;20.28;50.36
74613;BME280;63119;51.788;8.824;2022-10-16T11:13:55;100115.44;;;20.45;50.06
74613;BME280;63119;51.788;8.824;2022-10-16T11:16:28;100109.44;;;20.25;50.76
74613;BME280;63119;51.788;8.824;2022-10-16T11:19:01;100120.31;;;20.15;51.29
74613;BME280;63119;51.788;8.824;2022-10-16T11:21:30;100107.78;;;20.24;51.08
74613;BME280;63119;51.788;8.824;2022-10-16T11:26:28;100112.44;;;20.14;51.42
74613;BME280;63119;51.788;8.824;2022-10-16T11:28:56;100113.16;;;20.24;51.41
74613;BME280;63119;51.788;8.824;2022-10-16T11:31:43;100117.50;;;20.17;51.74
74613;BME280;63119;51.788;8.824;2022-10-16T11:36:45;100095.16;;;20.16;51.97
74613;BME280;63119;51.788;8.824;2022-10-16T11:39:20;100095.16;;;20.16;52.73
74613;BME280;63119;51.788;8.824;2022-10-16T11:41:49;100109.22;;;20.10;51.45
74613;BME280;63119;51.788;8.824;2022-10-16T11:47:15;100110.63;;;19.89;52.93
74613;BME280;63119;51.788;8.824;2022-10-16T11:49:45;100116.13;;;19.79;53.14
74613;BME280;63119;51.788;8.824;2022-10-16T11:52:17;100106.81;;;19.66;53.20
74613;BME280;63119;51.788;8.824;2022-10-16T11:54:51;100109.25;;;19.51;54.36
74613;BME280;63119;51.788;8.824;2022-10-16T11:57:29;100109.94;;;19.53;54.07
74613;BME280;63119;51.788;8.824;2022-10-16T12:00:18;100113.38;;;19.63;53.23
74613;BME280;63119;51.788;8.824;2022-10-16T12:03:14;100108.28;;;19.86;53.67
74613;BME280;63119;51.788;8.824;2022-10-16T12:08:23;100108.59;;;20.25;51.75
74613;BME280;63119;51.788;8.824;2022-10-16T12:10:48;100109.88;;;20.38;51.55
74613;BME280;63119;51.788;8.824;2022-10-16T12:13:49;100111.88;;;20.36;50.99
74613;BME280;63119;51.788;8.824;2022-10-16T12:18:45;100121.53;;;20.63;51.61
74613;BME280;63119;51.788;8.824;2022-10-16T12:21:12;100121.00;;;20.59;50.34
74613;BME280;63119;51.788;8.824;2022-10-16T12:23:51;100117.31;;;20.60;51.17
74613;BME280;63119;51.788;8.824;2022-10-16T12:26:29;100112.31;;;20.82;50.94
74613;BME280;63119;51.788;8.824;2022-10-16T12:28:55;100117.34;;;20.85;50.51
74613;BME280;63119;51.788;8.824;2022-10-16T12:31:22;100114.00;;;21.07;49.93
74613;BME280;63119;51.788;8.824;2022-10-16T12:33:57;100122.91;;;20.99;49.62
74613;BME280;63119;51.788;8.824;2022-10-16T12:36:42;100123.72;;;20.92;50.03
74613;BME280;63119;51.788;8.824;2022-10-16T12:39:20;100118.69;;;20.81;50.05
74613;BME280;63119;51.788;8.824;2022-10-16T12:41:46;100123.72;;;20.92;49.68
74613;BME280;63119;51.788;8.824;2022-10-16T12:44:24;100124.72;;;20.83;50.23
74613;BME280;63119;51.788;8.824;2022-10-16T12:46:51;100124.25;;;20.79;50.50
74613;BME280;63119;51.788;8.824;2022-10-16T12:49:36;100134.81;;;20.89;50.29
74613;BME280;63119;51.788;8.824;2022-10-16T12:52:02;100137.19;;;20.84;50.69
74613;BME280;63119;51.788;8.824;2022-10-16T12:54:36;100137.69;;;20.87;49.07
74613;BME280;63119;51.788;8.824;2022-10-16T12:57:12;100137.19;;;20.84;49.89
74613;BME280;63119;51.788;8.824;2022-10-16T13:00:02;100139.22;;;20.90;49.65
74613;BME280;63119;51.788;8.824;2022-10-16T13:10:35;100147.78;;;20.85;49.93
74613;BME280;63119;51.788;8.824;2022-10-16T13:16:01;100162.06;;;20.86;49.95
74613;BME280;63119;51.788;8.824;2022-10-16T13:18:42;100163.88;;;20.69;51.30
74613;BME280;63119;51.788;8.824;2022-10-16T13:24:07;100173.47;;;20.80;50.94
74613;BME280;63119;51.788;8.824;2022-10-16T13:26:39;100181.84;;;20.60;50.79
74613;BME280;63119;51.788;8.824;2022-10-16T13:29:06;100181.78;;;20.44;51.57
74613;BME280;63119;51.788;8.824;2022-10-16T13:31:32;100178.22;;;20.36;52.13
74613;BME280;63119;51.788;8.824;2022-10-16T13:33:59;100184.56;;;20.27;51.84
74613;BME280;63119;51.788;8.824;2022-10-16T13:36:30;100181.66;;;20.20;52.46
74613;BME280;63119;51.788;8.824;2022-10-16T13:39:15;100189.03;;;20.18;53.07
74613;BME280;63119;51.788;8.824;2022-10-16T13:41:42;100177.28;;;20.19;53.03
74613;BME280;63119;51.788;8.824;2022-10-16T13:44:13;100182.81;;;20.17;52.86
74613;BME280;63119;51.788;8.824;2022-10-16T13:46:40;100180.47;;;20.14;52.10
74613;BME280;63119;51.788;8.824;2022-10-16T13:49:12;100191.72;;;20.18;52.18
74613;BME280;63119;51.788;8.824;2022-10-16T13:51:38;100189.53;;;20.22;52.47
74613;BME280;63119;51.788;8.824;2022-10-16T13:54:03;100183.81;;;20.16;52.81
74613;BME280;63119;51.788;8.824;2022-10-16T13:56:30;100185.66;;;20.16;52.90
74613;BME280;63119;51.788;8.824;2022-10-16T13:59:22;100198.38;;;20.06;53.36
74613;BME280;63119;51.788;8.824;2022-10-16T14:01:47;100199.41;;;20.13;53.00
74613;BME280;63119;51.788;8.824;2022-10-16T14:04:14;100193.69;;;20.08;53.14
74613;BME280;63119;51.788;8.824;2022-10-16T14:06:42;100187.31;;;20.09;53.06
74613;BME280;63119;51.788;8.824;2022-10-16T14:09:29;100197.34;;;20.07;52.69
74613;BME280;63119;51.788;8.824;2022-10-16T14:12:00;100200.53;;;20.02;53.27
74613;BME280;63119;51.788;8.824;2022-10-16T14:14:38;100191.41;;;19.95;52.57
74613;BME280;63119;51.788;8.824;2022-10-16T14:17:05;100193.31;;;20.03;52.92
74613;BME280;63119;51.788;8.824;2022-10-16T14:19:31;100187.53;;;19.90;53.16
74613;BME280;63119;51.788;8.824;2022-10-16T14:21:58;100191.28;;;19.97;53.37